<?xml version="1.0" encoding="UTF-8" standalone="no" ?><gpx xmlns="http://www.topografix.com/GPX/1/1" xmlns:gpxx="http://www.garmin.com/xmlschemas/GpxExtensions/v3" xmlns:wptx1="http://www.garmin.com/xmlschemas/WaypointExtension/v1" xmlns:gpxtpx="http://www.garmin.com/xmlschemas/TrackPointExtension/v1" creator="Dakota 20" version="1.1" xmlns:xsi="http://www.w3.org/2001/XMLSchema-instance" xsi:schemaLocation="http://www.topografix.com/GPX/1/1 http://www.topografix.com/GPX/1/1/gpx.xsd http://www.garmin.com/xmlschemas/GpxExtensions/v3 http://www8.garmin.com/xmlschemas/GpxExtensionsv3.xsd http://www.garmin.com/xmlschemas/WaypointExtension/v1 http://www8.garmin.com/xmlschemas/WaypointExtensionv1.xsd http://www.garmin.com/xmlschemas/TrackPointExtension/v1 http://www.garmin.com/xmlschemas/TrackPointExtensionv1.xsd"><metadata><link href="http://www.garmin.com"><text>Garmin International</text></link><time>2017-05-03T15:30:17Z</time></metadata><trk><name>Current Track: 03 MAY 2017 10:02</name><extensions><gpxx:TrackExtension><gpxx:DisplayColor>Cyan</gpxx:DisplayColor></gpxx:TrackExtension></extensions><trkseg><trkpt lat="51.8148692418" lon="-2.1528116986"><ele>183.75</ele><time>2017-05-03T09:02:07Z</time></trkpt><trkpt lat="51.8148655538" lon="-2.1528145485"><ele>182.31</ele><time>2017-05-03T09:02:29Z</time></trkpt><trkpt lat="51.8148652185" lon="-2.1528126206"><ele>182.79</ele><time>2017-05-03T09:02:51Z</time></trkpt><trkpt lat="51.8148966506" lon="-2.1528174821"><ele>183.27</ele><time>2017-05-03T09:03:10Z</time></trkpt><trkpt lat="51.8148896098" lon="-2.1528547816"><ele>184.23</ele><time>2017-05-03T09:03:27Z</time></trkpt><trkpt lat="51.8147588521" lon="-2.1529766545"><ele>184.23</ele><time>2017-05-03T09:03:47Z</time></trkpt><trkpt lat="51.8146633822" lon="-2.1530583780"><ele>185.67</ele><time>2017-05-03T09:04:07Z</time></trkpt><trkpt lat="51.8145473767" lon="-2.1532157063"><ele>187.11</ele><time>2017-05-03T09:04:30Z</time></trkpt><trkpt lat="51.8143951613" lon="-2.1533679217"><ele>187.11</ele><time>2017-05-03T09:04:51Z</time></trkpt><trkpt lat="51.8142208178" lon="-2.1534760483"><ele>188.56</ele><time>2017-05-03T09:05:01Z</time></trkpt><trkpt lat="51.8140441272" lon="-2.1536407527"><ele>190.48</ele><time>2017-05-03T09:05:20Z</time></trkpt><trkpt lat="51.8138671014" lon="-2.1537804790"><ele>189.04</ele><time>2017-05-03T09:05:38Z</time></trkpt><trkpt lat="51.8137157243" lon="-2.1539417468"><ele>189.52</ele><time>2017-05-03T09:05:56Z</time></trkpt><trkpt lat="51.8135308195" lon="-2.1541162580"><ele>189.52</ele><time>2017-05-03T09:06:17Z</time></trkpt><trkpt lat="51.8133879919" lon="-2.1542672161"><ele>190.48</ele><time>2017-05-03T09:06:33Z</time></trkpt><trkpt lat="51.8132335972" lon="-2.1544175874"><ele>190.00</ele><time>2017-05-03T09:06:52Z</time></trkpt><trkpt lat="51.8131106347" lon="-2.1545569785"><ele>190.00</ele><time>2017-05-03T09:07:08Z</time></trkpt><trkpt lat="51.8129994068" lon="-2.1546697151"><ele>189.52</ele><time>2017-05-03T09:07:23Z</time></trkpt><trkpt lat="51.8128527235" lon="-2.1547970362"><ele>191.44</ele><time>2017-05-03T09:07:40Z</time></trkpt><trkpt lat="51.8128466047" lon="-2.1548059210"><ele>190.48</ele><time>2017-05-03T09:07:41Z</time></trkpt><trkpt lat="51.8127517216" lon="-2.1548780054"><ele>190.48</ele><time>2017-05-03T09:07:53Z</time></trkpt><trkpt lat="51.8125705887" lon="-2.1550175641"><ele>191.44</ele><time>2017-05-03T09:08:15Z</time></trkpt><trkpt lat="51.8124172837" lon="-2.1551218349"><ele>192.40</ele><time>2017-05-03T09:08:35Z</time></trkpt><trkpt lat="51.8122511543" lon="-2.1552144550"><ele>192.40</ele><time>2017-05-03T09:08:54Z</time></trkpt><trkpt lat="51.8121002801" lon="-2.1553031355"><ele>193.84</ele><time>2017-05-03T09:09:09Z</time></trkpt><trkpt lat="51.8119745515" lon="-2.1553838532"><ele>194.32</ele><time>2017-05-03T09:09:24Z</time></trkpt><trkpt lat="51.8118107691" lon="-2.1554839332"><ele>194.80</ele><time>2017-05-03T09:09:40Z</time></trkpt><trkpt lat="51.8116649240" lon="-2.1556181274"><ele>195.28</ele><time>2017-05-03T09:09:59Z</time></trkpt><trkpt lat="51.8115564622" lon="-2.1557647269"><ele>196.73</ele><time>2017-05-03T09:10:15Z</time></trkpt><trkpt lat="51.8114454858" lon="-2.1558945626"><ele>196.73</ele><time>2017-05-03T09:10:32Z</time></trkpt><trkpt lat="51.8113916740" lon="-2.1560266614"><ele>195.28</ele><time>2017-05-03T09:10:49Z</time></trkpt><trkpt lat="51.8112832960" lon="-2.1562791243"><ele>194.80</ele><time>2017-05-03T09:11:07Z</time></trkpt><trkpt lat="51.8112061825" lon="-2.1565538831"><ele>192.88</ele><time>2017-05-03T09:11:27Z</time></trkpt><trkpt lat="51.8111675419" lon="-2.1569006424"><ele>192.40</ele><time>2017-05-03T09:11:47Z</time></trkpt><trkpt lat="51.8111147359" lon="-2.1572736371"><ele>192.40</ele><time>2017-05-03T09:12:10Z</time></trkpt><trkpt lat="51.8110527936" lon="-2.1574916504"><ele>190.48</ele><time>2017-05-03T09:12:27Z</time></trkpt><trkpt lat="51.8110005744" lon="-2.1576953307"><ele>190.48</ele><time>2017-05-03T09:12:43Z</time></trkpt><trkpt lat="51.8109286577" lon="-2.1579588577"><ele>190.48</ele><time>2017-05-03T09:13:02Z</time></trkpt><trkpt lat="51.8108818866" lon="-2.1582597680"><ele>189.04</ele><time>2017-05-03T09:13:20Z</time></trkpt><trkpt lat="51.8108026776" lon="-2.1585502848"><ele>190.00</ele><time>2017-05-03T09:13:39Z</time></trkpt><trkpt lat="51.8107384723" lon="-2.1587669570"><ele>190.00</ele><time>2017-05-03T09:13:56Z</time></trkpt><trkpt lat="51.8106774520" lon="-2.1590019856"><ele>188.56</ele><time>2017-05-03T09:14:12Z</time></trkpt><trkpt lat="51.8106259871" lon="-2.1592157241"><ele>189.04</ele><time>2017-05-03T09:14:28Z</time></trkpt><trkpt lat="51.8105847482" lon="-2.1593518462"><ele>189.04</ele><time>2017-05-03T09:14:39Z</time></trkpt><trkpt lat="51.8105224706" lon="-2.1594584640"><ele>188.56</ele><time>2017-05-03T09:14:57Z</time></trkpt><trkpt lat="51.8104652222" lon="-2.1594205778"><ele>189.52</ele><time>2017-05-03T09:15:18Z</time></trkpt><trkpt lat="51.8104389869" lon="-2.1594176441"><ele>189.52</ele><time>2017-05-03T09:15:31Z</time></trkpt><trkpt lat="51.8103532400" lon="-2.1594225056"><ele>189.04</ele><time>2017-05-03T09:15:50Z</time></trkpt><trkpt lat="51.8103127554" lon="-2.1593428776"><ele>190.00</ele><time>2017-05-03T09:16:06Z</time></trkpt><trkpt lat="51.8102913816" lon="-2.1593401954"><ele>190.48</ele><time>2017-05-03T09:16:25Z</time></trkpt><trkpt lat="51.8103036191" lon="-2.1592422109"><ele>190.48</ele><time>2017-05-03T09:16:41Z</time></trkpt><trkpt lat="51.8103104923" lon="-2.1594113577"><ele>190.48</ele><time>2017-05-03T09:16:58Z</time></trkpt><trkpt lat="51.8102271762" lon="-2.1595071629"><ele>190.48</ele><time>2017-05-03T09:17:31Z</time></trkpt><trkpt lat="51.8103189580" lon="-2.1593379322"><ele>190.96</ele><time>2017-05-03T09:23:09Z</time></trkpt><trkpt lat="51.8102662358" lon="-2.1592205856"><ele>190.96</ele><time>2017-05-03T09:23:26Z</time></trkpt><trkpt lat="51.8102044612" lon="-2.1591553744"><ele>191.92</ele><time>2017-05-03T09:23:44Z</time></trkpt><trkpt lat="51.8101273477" lon="-2.1590730641"><ele>192.40</ele><time>2017-05-03T09:24:05Z</time></trkpt><trkpt lat="51.8100404274" lon="-2.1591029875"><ele>193.36</ele><time>2017-05-03T09:24:24Z</time></trkpt><trkpt lat="51.8100280222" lon="-2.1591222659"><ele>192.40</ele><time>2017-05-03T09:24:42Z</time></trkpt><trkpt lat="51.8100539222" lon="-2.1588522848"><ele>193.36</ele><time>2017-05-03T09:25:01Z</time></trkpt><trkpt lat="51.8100464623" lon="-2.1586227044"><ele>192.40</ele><time>2017-05-03T09:25:16Z</time></trkpt><trkpt lat="51.8100659922" lon="-2.1583843231"><ele>193.36</ele><time>2017-05-03T09:25:32Z</time></trkpt><trkpt lat="51.8099896330" lon="-2.1583781205"><ele>192.40</ele><time>2017-05-03T09:25:48Z</time></trkpt><trkpt lat="51.8099520821" lon="-2.1583845746"><ele>193.36</ele><time>2017-05-03T09:26:12Z</time></trkpt><trkpt lat="51.8098867033" lon="-2.1584113967"><ele>192.40</ele><time>2017-05-03T09:26:19Z</time></trkpt><trkpt lat="51.8097472284" lon="-2.1584101394"><ele>192.40</ele><time>2017-05-03T09:26:30Z</time></trkpt><trkpt lat="51.8095329870" lon="-2.1584144980"><ele>189.04</ele><time>2017-05-03T09:26:47Z</time></trkpt><trkpt lat="51.8094224297" lon="-2.1583505441"><ele>187.59</ele><time>2017-05-03T09:27:04Z</time></trkpt><trkpt lat="51.8093857169" lon="-2.1583515499"><ele>186.15</ele><time>2017-05-03T09:27:23Z</time></trkpt><trkpt lat="51.8093202543" lon="-2.1582179423"><ele>184.71</ele><time>2017-05-03T09:27:42Z</time></trkpt><trkpt lat="51.8091922626" lon="-2.1578853484"><ele>182.79</ele><time>2017-05-03T09:28:02Z</time></trkpt><trkpt lat="51.8090532906" lon="-2.1574383415"><ele>180.87</ele><time>2017-05-03T09:28:23Z</time></trkpt><trkpt lat="51.8090436514" lon="-2.1572655067"><ele>178.46</ele><time>2017-05-03T09:28:48Z</time></trkpt><trkpt lat="51.8088571541" lon="-2.1570305619"><ele>175.10</ele><time>2017-05-03T09:29:06Z</time></trkpt><trkpt lat="51.8087155838" lon="-2.1571698692"><ele>172.69</ele><time>2017-05-03T09:29:24Z</time></trkpt><trkpt lat="51.8086214550" lon="-2.1573012974"><ele>171.73</ele><time>2017-05-03T09:29:37Z</time></trkpt><trkpt lat="51.8085300084" lon="-2.1574291214"><ele>169.81</ele><time>2017-05-03T09:29:54Z</time></trkpt><trkpt lat="51.8085005879" lon="-2.1574589610"><ele>168.37</ele><time>2017-05-03T09:29:58Z</time></trkpt><trkpt lat="51.8083825707" lon="-2.1576141939"><ele>166.45</ele><time>2017-05-03T09:30:17Z</time></trkpt><trkpt lat="51.8083142582" lon="-2.1577631403"><ele>164.52</ele><time>2017-05-03T09:30:34Z</time></trkpt><trkpt lat="51.8082308583" lon="-2.1576295327"><ele>163.08</ele><time>2017-05-03T09:30:49Z</time></trkpt><trkpt lat="51.8082246557" lon="-2.1574779879"><ele>162.12</ele><time>2017-05-03T09:31:04Z</time></trkpt><trkpt lat="51.8081430998" lon="-2.1575211547"><ele>163.08</ele><time>2017-05-03T09:31:19Z</time></trkpt><trkpt lat="51.8081389088" lon="-2.1575160418"><ele>162.60</ele><time>2017-05-03T09:31:40Z</time></trkpt><trkpt lat="51.8081272580" lon="-2.1575050615"><ele>162.60</ele><time>2017-05-03T09:32:06Z</time></trkpt><trkpt lat="51.8081311136" lon="-2.1575431991"><ele>162.12</ele><time>2017-05-03T09:32:27Z</time></trkpt><trkpt lat="51.8082057126" lon="-2.1577470470"><ele>161.64</ele><time>2017-05-03T09:32:42Z</time></trkpt><trkpt lat="51.8081457820" lon="-2.1580592729"><ele>161.16</ele><time>2017-05-03T09:32:59Z</time></trkpt><trkpt lat="51.8081066385" lon="-2.1582744364"><ele>160.68</ele><time>2017-05-03T09:33:13Z</time></trkpt><trkpt lat="51.8080047984" lon="-2.1585391369"><ele>159.72</ele><time>2017-05-03T09:33:29Z</time></trkpt><trkpt lat="51.8079021201" lon="-2.1587259695"><ele>158.27</ele><time>2017-05-03T09:33:45Z</time></trkpt><trkpt lat="51.8077476416" lon="-2.1589273028"><ele>157.79</ele><time>2017-05-03T09:34:02Z</time></trkpt><trkpt lat="51.8076582905" lon="-2.1591130458"><ele>157.31</ele><time>2017-05-03T09:34:18Z</time></trkpt><trkpt lat="51.8075997848" lon="-2.1591811068"><ele>157.79</ele><time>2017-05-03T09:34:33Z</time></trkpt><trkpt lat="51.8075730465" lon="-2.1594380122"><ele>157.31</ele><time>2017-05-03T09:34:50Z</time></trkpt><trkpt lat="51.8076261878" lon="-2.1596829314"><ele>157.31</ele><time>2017-05-03T09:35:04Z</time></trkpt><trkpt lat="51.8077248428" lon="-2.1599080693"><ele>157.79</ele><time>2017-05-03T09:35:21Z</time></trkpt><trkpt lat="51.8077911437" lon="-2.1601210535"><ele>157.79</ele><time>2017-05-03T09:35:35Z</time></trkpt><trkpt lat="51.8077937420" lon="-2.1601472888"><ele>157.31</ele><time>2017-05-03T09:35:36Z</time></trkpt><trkpt lat="51.8078855239" lon="-2.1605040226"><ele>158.27</ele><time>2017-05-03T09:35:55Z</time></trkpt><trkpt lat="51.8079141900" lon="-2.1606177650"><ele>158.27</ele><time>2017-05-03T09:36:02Z</time></trkpt><trkpt lat="51.8079892918" lon="-2.1608467586"><ele>159.24</ele><time>2017-05-03T09:36:19Z</time></trkpt><trkpt lat="51.8081019446" lon="-2.1610998083"><ele>158.75</ele><time>2017-05-03T09:36:37Z</time></trkpt><trkpt lat="51.8081881106" lon="-2.1613772493"><ele>157.31</ele><time>2017-05-03T09:36:54Z</time></trkpt><trkpt lat="51.8082689960" lon="-2.1615437139"><ele>157.31</ele><time>2017-05-03T09:37:10Z</time></trkpt><trkpt lat="51.8083311059" lon="-2.1618916467"><ele>154.91</ele><time>2017-05-03T09:37:29Z</time></trkpt><trkpt lat="51.8083953112" lon="-2.1621563472"><ele>155.39</ele><time>2017-05-03T09:37:46Z</time></trkpt><trkpt lat="51.8084638752" lon="-2.1623999253"><ele>155.39</ele><time>2017-05-03T09:38:03Z</time></trkpt><trkpt lat="51.8084965646" lon="-2.1624867618"><ele>154.91</ele><time>2017-05-03T09:38:23Z</time></trkpt><trkpt lat="51.8085743487" lon="-2.1627324354"><ele>154.43</ele><time>2017-05-03T09:38:44Z</time></trkpt><trkpt lat="51.8086255621" lon="-2.1630144026"><ele>153.95</ele><time>2017-05-03T09:39:03Z</time></trkpt><trkpt lat="51.8086620234" lon="-2.1633298136"><ele>153.95</ele><time>2017-05-03T09:39:20Z</time></trkpt><trkpt lat="51.8087657075" lon="-2.1637489088"><ele>153.95</ele><time>2017-05-03T09:39:42Z</time></trkpt><trkpt lat="51.8087832257" lon="-2.1638598852"><ele>154.43</ele><time>2017-05-03T09:40:02Z</time></trkpt><trkpt lat="51.8087196071" lon="-2.1638933290"><ele>153.47</ele><time>2017-05-03T09:40:19Z</time></trkpt><trkpt lat="51.8086661305" lon="-2.1638808399"><ele>152.51</ele><time>2017-05-03T09:40:36Z</time></trkpt><trkpt lat="51.8085951358" lon="-2.1638172213"><ele>152.99</ele><time>2017-05-03T09:41:02Z</time></trkpt><trkpt lat="51.8086550664" lon="-2.1638623159"><ele>152.51</ele><time>2017-05-03T09:41:18Z</time></trkpt><trkpt lat="51.8087128177" lon="-2.1638897248"><ele>152.03</ele><time>2017-05-03T09:41:38Z</time></trkpt><trkpt lat="51.8085533101" lon="-2.1636802610"><ele>149.14</ele><time>2017-05-03T09:41:57Z</time></trkpt><trkpt lat="51.8084751908" lon="-2.1635601483"><ele>147.22</ele><time>2017-05-03T09:42:16Z</time></trkpt><trkpt lat="51.8084311858" lon="-2.1635333262"><ele>144.34</ele><time>2017-05-03T09:42:32Z</time></trkpt><trkpt lat="51.8082214706" lon="-2.1633911692"><ele>142.41</ele><time>2017-05-03T09:42:52Z</time></trkpt><trkpt lat="51.8079773057" lon="-2.1633680351"><ele>139.05</ele><time>2017-05-03T09:43:13Z</time></trkpt><trkpt lat="51.8077718653" lon="-2.1634106152"><ele>136.64</ele><time>2017-05-03T09:43:34Z</time></trkpt><trkpt lat="51.8076200690" lon="-2.1634380240"><ele>136.16</ele><time>2017-05-03T09:43:50Z</time></trkpt><trkpt lat="51.8074812647" lon="-2.1634684503"><ele>136.16</ele><time>2017-05-03T09:44:07Z</time></trkpt><trkpt lat="51.8074715417" lon="-2.1634733118"><ele>136.64</ele><time>2017-05-03T09:44:08Z</time></trkpt><trkpt lat="51.8073344976" lon="-2.1635065041"><ele>137.13</ele><time>2017-05-03T09:44:23Z</time></trkpt><trkpt lat="51.8072200008" lon="-2.1635651775"><ele>139.05</ele><time>2017-05-03T09:44:37Z</time></trkpt><trkpt lat="51.8071798515" lon="-2.1635930892"><ele>139.53</ele><time>2017-05-03T09:44:43Z</time></trkpt><trkpt lat="51.8070914224" lon="-2.1636712085"><ele>140.49</ele><time>2017-05-03T09:44:56Z</time></trkpt><trkpt lat="51.8070599064" lon="-2.1636816859"><ele>140.97</ele><time>2017-05-03T09:45:00Z</time></trkpt><trkpt lat="51.8070241157" lon="-2.1637310553"><ele>143.85</ele><time>2017-05-03T09:45:07Z</time></trkpt><trkpt lat="51.8069294840" lon="-2.1638278663"><ele>144.82</ele><time>2017-05-03T09:45:22Z</time></trkpt><trkpt lat="51.8068061862" lon="-2.1639068238"><ele>146.26</ele><time>2017-05-03T09:45:38Z</time></trkpt><trkpt lat="51.8066766858" lon="-2.1639969293"><ele>147.22</ele><time>2017-05-03T09:45:53Z</time></trkpt><trkpt lat="51.8065853231" lon="-2.1640510764"><ele>149.14</ele><time>2017-05-03T09:46:05Z</time></trkpt><trkpt lat="51.8064218760" lon="-2.1640890464"><ele>151.06</ele><time>2017-05-03T09:46:24Z</time></trkpt><trkpt lat="51.8063913658" lon="-2.1640694328"><ele>151.06</ele><time>2017-05-03T09:46:27Z</time></trkpt><trkpt lat="51.8062621169" lon="-2.1638976038"><ele>152.51</ele><time>2017-05-03T09:46:46Z</time></trkpt><trkpt lat="51.8061886914" lon="-2.1637282893"><ele>154.43</ele><time>2017-05-03T09:47:01Z</time></trkpt><trkpt lat="51.8060765415" lon="-2.1636100207"><ele>156.35</ele><time>2017-05-03T09:47:16Z</time></trkpt><trkpt lat="51.8060577661" lon="-2.1635935921"><ele>156.35</ele><time>2017-05-03T09:47:20Z</time></trkpt><trkpt lat="51.8059105799" lon="-2.1635675244"><ele>156.35</ele><time>2017-05-03T09:47:36Z</time></trkpt><trkpt lat="51.8057583645" lon="-2.1635802649"><ele>155.39</ele><time>2017-05-03T09:47:52Z</time></trkpt><trkpt lat="51.8056173809" lon="-2.1635534428"><ele>154.91</ele><time>2017-05-03T09:48:08Z</time></trkpt><trkpt lat="51.8054245971" lon="-2.1634649299"><ele>152.51</ele><time>2017-05-03T09:48:25Z</time></trkpt><trkpt lat="51.8053576257" lon="-2.1634709649"><ele>152.51</ele><time>2017-05-03T09:48:46Z</time></trkpt><trkpt lat="51.8053745572" lon="-2.1634522732"><ele>152.99</ele><time>2017-05-03T09:49:08Z</time></trkpt><trkpt lat="51.8052795064" lon="-2.1635458153"><ele>152.51</ele><time>2017-05-03T09:49:29Z</time></trkpt><trkpt lat="51.8051794264" lon="-2.1636170615"><ele>154.43</ele><time>2017-05-03T09:49:36Z</time></trkpt><trkpt lat="51.8050436396" lon="-2.1637628227"><ele>156.83</ele><time>2017-05-03T09:49:55Z</time></trkpt><trkpt lat="51.8049148936" lon="-2.1639025491"><ele>156.83</ele><time>2017-05-03T09:50:13Z</time></trkpt><trkpt lat="51.8048927654" lon="-2.1639287006"><ele>157.31</ele><time>2017-05-03T09:50:16Z</time></trkpt><trkpt lat="51.8047728203" lon="-2.1640544292"><ele>158.75</ele><time>2017-05-03T09:50:32Z</time></trkpt><trkpt lat="51.8047127221" lon="-2.1641210653"><ele>159.24</ele><time>2017-05-03T09:50:39Z</time></trkpt><trkpt lat="51.8046590779" lon="-2.1641951613"><ele>160.68</ele><time>2017-05-03T09:50:46Z</time></trkpt><trkpt lat="51.8045615125" lon="-2.1643918008"><ele>160.20</ele><time>2017-05-03T09:51:02Z</time></trkpt><trkpt lat="51.8045577407" lon="-2.1644050442"><ele>160.20</ele><time>2017-05-03T09:51:03Z</time></trkpt><trkpt lat="51.8044721615" lon="-2.1646216325"><ele>162.60</ele><time>2017-05-03T09:51:18Z</time></trkpt><trkpt lat="51.8043690640" lon="-2.1648393106"><ele>165.48</ele><time>2017-05-03T09:51:37Z</time></trkpt><trkpt lat="51.8042828143" lon="-2.1649507061"><ele>165.96</ele><time>2017-05-03T09:51:49Z</time></trkpt><trkpt lat="51.8041465245" lon="-2.1650719084"><ele>165.96</ele><time>2017-05-03T09:52:04Z</time></trkpt><trkpt lat="51.8040270824" lon="-2.1651417296"><ele>167.41</ele><time>2017-05-03T09:52:17Z</time></trkpt><trkpt lat="51.8038850930" lon="-2.1651979722"><ele>167.41</ele><time>2017-05-03T09:52:32Z</time></trkpt><trkpt lat="51.8038385734" lon="-2.1652123891"><ele>168.37</ele><time>2017-05-03T09:52:37Z</time></trkpt><trkpt lat="51.8037839234" lon="-2.1652422287"><ele>169.33</ele><time>2017-05-03T09:52:42Z</time></trkpt><trkpt lat="51.8036379945" lon="-2.1653790213"><ele>170.29</ele><time>2017-05-03T09:52:59Z</time></trkpt><trkpt lat="51.8035238329" lon="-2.1655198373"><ele>170.77</ele><time>2017-05-03T09:53:13Z</time></trkpt><trkpt lat="51.8034109287" lon="-2.1656528581"><ele>172.21</ele><time>2017-05-03T09:53:26Z</time></trkpt><trkpt lat="51.8033494893" lon="-2.1657158062"><ele>173.17</ele><time>2017-05-03T09:53:33Z</time></trkpt><trkpt lat="51.8032257725" lon="-2.1658605617"><ele>174.14</ele><time>2017-05-03T09:53:48Z</time></trkpt><trkpt lat="51.8031219207" lon="-2.1659982763"><ele>173.66</ele><time>2017-05-03T09:54:01Z</time></trkpt><trkpt lat="51.8030017242" lon="-2.1661535930"><ele>175.10</ele><time>2017-05-03T09:54:17Z</time></trkpt><trkpt lat="51.8028982077" lon="-2.1662850212"><ele>175.58</ele><time>2017-05-03T09:54:33Z</time></trkpt><trkpt lat="51.8027409632" lon="-2.1664906293"><ele>176.54</ele><time>2017-05-03T09:54:52Z</time></trkpt><trkpt lat="51.8026351836" lon="-2.1666475385"><ele>177.02</ele><time>2017-05-03T09:55:06Z</time></trkpt><trkpt lat="51.8025332596" lon="-2.1666789707"><ele>176.54</ele><time>2017-05-03T09:55:23Z</time></trkpt><trkpt lat="51.8025289848" lon="-2.1666921303"><ele>176.54</ele><time>2017-05-03T09:55:49Z</time></trkpt><trkpt lat="51.8025348522" lon="-2.1666881070"><ele>176.54</ele><time>2017-05-03T09:56:15Z</time></trkpt><trkpt lat="51.8025711458" lon="-2.1666166093"><ele>177.02</ele><time>2017-05-03T09:56:38Z</time></trkpt><trkpt lat="51.8026552163" lon="-2.1664576884"><ele>177.98</ele><time>2017-05-03T09:56:54Z</time></trkpt><trkpt lat="51.8027012330" lon="-2.1662237495"><ele>177.98</ele><time>2017-05-03T09:57:10Z</time></trkpt><trkpt lat="51.8027805258" lon="-2.1659461409"><ele>178.46</ele><time>2017-05-03T09:57:33Z</time></trkpt><trkpt lat="51.8028298113" lon="-2.1656188276"><ele>180.38</ele><time>2017-05-03T09:57:57Z</time></trkpt><trkpt lat="51.8028801028" lon="-2.1654126327"><ele>180.38</ele><time>2017-05-03T09:58:18Z</time></trkpt><trkpt lat="51.8028946035" lon="-2.1652330924"><ele>180.87</ele><time>2017-05-03T09:58:29Z</time></trkpt><trkpt lat="51.8028915022" lon="-2.1651258040"><ele>180.38</ele><time>2017-05-03T09:58:45Z</time></trkpt><trkpt lat="51.8029029015" lon="-2.1650384646"><ele>180.87</ele><time>2017-05-03T09:59:04Z</time></trkpt><trkpt lat="51.8028902449" lon="-2.1647657175"><ele>182.31</ele><time>2017-05-03T09:59:26Z</time></trkpt><trkpt lat="51.8028953578" lon="-2.1644762065"><ele>182.79</ele><time>2017-05-03T09:59:46Z</time></trkpt><trkpt lat="51.8029010575" lon="-2.1643135138"><ele>182.79</ele><time>2017-05-03T10:00:01Z</time></trkpt><trkpt lat="51.8028179929" lon="-2.1640079096"><ele>184.71</ele><time>2017-05-03T10:00:21Z</time></trkpt><trkpt lat="51.8028315715" lon="-2.1637367550"><ele>186.63</ele><time>2017-05-03T10:00:43Z</time></trkpt><trkpt lat="51.8028462399" lon="-2.1635220945"><ele>188.08</ele><time>2017-05-03T10:01:06Z</time></trkpt><trkpt lat="51.8028748222" lon="-2.1633822843"><ele>190.00</ele><time>2017-05-03T10:01:27Z</time></trkpt><trkpt lat="51.8029295560" lon="-2.1630707290"><ele>191.44</ele><time>2017-05-03T10:01:50Z</time></trkpt><trkpt lat="51.8029152229" lon="-2.1628376283"><ele>193.36</ele><time>2017-05-03T10:02:11Z</time></trkpt><trkpt lat="51.8028988782" lon="-2.1628297493"><ele>194.80</ele><time>2017-05-03T10:02:30Z</time></trkpt><trkpt lat="51.8028896581" lon="-2.1628135722"><ele>193.36</ele><time>2017-05-03T10:02:51Z</time></trkpt><trkpt lat="51.8028536998" lon="-2.1627886780"><ele>195.28</ele><time>2017-05-03T10:03:08Z</time></trkpt><trkpt lat="51.8028469104" lon="-2.1627774462"><ele>196.25</ele><time>2017-05-03T10:03:32Z</time></trkpt><trkpt lat="51.8028339185" lon="-2.1627885941"><ele>195.28</ele><time>2017-05-03T10:04:04Z</time></trkpt><trkpt lat="51.8028376903" lon="-2.1627922822"><ele>195.28</ele><time>2017-05-03T10:04:32Z</time></trkpt><trkpt lat="51.8028392829" lon="-2.1627978981"><ele>195.77</ele><time>2017-05-03T10:04:59Z</time></trkpt><trkpt lat="51.8028355949" lon="-2.1628025919"><ele>195.28</ele><time>2017-05-03T10:05:30Z</time></trkpt><trkpt lat="51.8028473295" lon="-2.1628047712"><ele>194.32</ele><time>2017-05-03T10:05:53Z</time></trkpt><trkpt lat="51.8028448150" lon="-2.1628146619"><ele>194.80</ele><time>2017-05-03T10:06:15Z</time></trkpt><trkpt lat="51.8028500117" lon="-2.1628128178"><ele>194.80</ele><time>2017-05-03T10:06:38Z</time></trkpt><trkpt lat="51.8028354272" lon="-2.1628377121"><ele>195.28</ele><time>2017-05-03T10:06:52Z</time></trkpt><trkpt lat="51.8028414622" lon="-2.1628397238"><ele>194.32</ele><time>2017-05-03T10:07:16Z</time></trkpt><trkpt lat="51.8028426357" lon="-2.1628351975"><ele>194.32</ele><time>2017-05-03T10:07:37Z</time></trkpt><trkpt lat="51.8028401211" lon="-2.1628337726"><ele>194.32</ele><time>2017-05-03T10:08:07Z</time></trkpt><trkpt lat="51.8028350081" lon="-2.1628358681"><ele>193.36</ele><time>2017-05-03T10:08:39Z</time></trkpt><trkpt lat="51.8028371874" lon="-2.1628271509"><ele>193.84</ele><time>2017-05-03T10:08:57Z</time></trkpt><trkpt lat="51.8028412946" lon="-2.1628337726"><ele>193.84</ele><time>2017-05-03T10:09:17Z</time></trkpt><trkpt lat="51.8028295599" lon="-2.1628487762"><ele>194.32</ele><time>2017-05-03T10:09:41Z</time></trkpt><trkpt lat="51.8028195854" lon="-2.1628553979"><ele>194.32</ele><time>2017-05-03T10:10:00Z</time></trkpt><trkpt lat="51.8028065935" lon="-2.1628694795"><ele>193.84</ele><time>2017-05-03T10:10:30Z</time></trkpt><trkpt lat="51.8028321583" lon="-2.1628495306"><ele>193.36</ele><time>2017-05-03T10:10:48Z</time></trkpt><trkpt lat="51.8028361816" lon="-2.1628526319"><ele>193.36</ele><time>2017-05-03T10:11:04Z</time></trkpt><trkpt lat="51.8028357625" lon="-2.1628453396"><ele>193.36</ele><time>2017-05-03T10:11:28Z</time></trkpt><trkpt lat="51.8028406240" lon="-2.1628370415"><ele>192.40</ele><time>2017-05-03T10:11:52Z</time></trkpt><trkpt lat="51.8028468266" lon="-2.1628305037"><ele>193.36</ele><time>2017-05-03T10:12:16Z</time></trkpt><trkpt lat="51.8028478324" lon="-2.1628326830"><ele>192.88</ele><time>2017-05-03T10:12:38Z</time></trkpt><trkpt lat="51.8028500117" lon="-2.1628339402"><ele>192.40</ele><time>2017-05-03T10:13:00Z</time></trkpt><trkpt lat="51.8028496765" lon="-2.1628328506"><ele>192.88</ele><time>2017-05-03T10:13:21Z</time></trkpt><trkpt lat="51.8028489221" lon="-2.1628338564"><ele>192.88</ele><time>2017-05-03T10:13:47Z</time></trkpt><trkpt lat="51.8028501794" lon="-2.1628241334"><ele>192.88</ele><time>2017-05-03T10:14:12Z</time></trkpt><trkpt lat="51.8028399535" lon="-2.1628072020"><ele>192.40</ele><time>2017-05-03T10:14:37Z</time></trkpt><trkpt lat="51.8028471619" lon="-2.1628227923"><ele>193.36</ele><time>2017-05-03T10:15:00Z</time></trkpt><trkpt lat="51.8028495088" lon="-2.1628305875"><ele>192.88</ele><time>2017-05-03T10:15:23Z</time></trkpt><trkpt lat="51.8028459884" lon="-2.1628346108"><ele>192.88</ele><time>2017-05-03T10:15:45Z</time></trkpt><trkpt lat="51.8028368521" lon="-2.1628541406"><ele>192.88</ele><time>2017-05-03T10:16:13Z</time></trkpt><trkpt lat="51.8028366845" lon="-2.1628476866"><ele>192.40</ele><time>2017-05-03T10:16:39Z</time></trkpt><trkpt lat="51.8028116226" lon="-2.1628533024"><ele>192.40</ele><time>2017-05-03T10:16:59Z</time></trkpt><trkpt lat="51.8028082699" lon="-2.1628597565"><ele>193.36</ele><time>2017-05-03T10:17:21Z</time></trkpt><trkpt lat="51.8028056715" lon="-2.1628515422"><ele>192.88</ele><time>2017-05-03T10:17:44Z</time></trkpt><trkpt lat="51.8028075155" lon="-2.1628505364"><ele>191.92</ele><time>2017-05-03T10:18:05Z</time></trkpt><trkpt lat="51.8028040789" lon="-2.1628356166"><ele>192.40</ele><time>2017-05-03T10:18:37Z</time></trkpt><trkpt lat="51.8028037436" lon="-2.1628269833"><ele>192.40</ele><time>2017-05-03T10:19:03Z</time></trkpt><trkpt lat="51.8028025702" lon="-2.1628229599"><ele>192.40</ele><time>2017-05-03T10:19:35Z</time></trkpt><trkpt lat="51.8028044980" lon="-2.1628331020"><ele>191.92</ele><time>2017-05-03T10:19:52Z</time></trkpt><trkpt lat="51.8028050009" lon="-2.1628328506"><ele>191.44</ele><time>2017-05-03T10:20:19Z</time></trkpt><trkpt lat="51.8028130475" lon="-2.1628605109"><ele>192.40</ele><time>2017-05-03T10:20:48Z</time></trkpt><trkpt lat="51.8028177414" lon="-2.1628663782"><ele>192.40</ele><time>2017-05-03T10:21:08Z</time></trkpt><trkpt lat="51.8028290570" lon="-2.1628139913"><ele>191.44</ele><time>2017-05-03T10:21:27Z</time></trkpt><trkpt lat="51.8029332440" lon="-2.1623917948"><ele>192.88</ele><time>2017-05-03T10:21:45Z</time></trkpt><trkpt lat="51.8029899057" lon="-2.1620840114"><ele>194.80</ele><time>2017-05-03T10:22:06Z</time></trkpt><trkpt lat="51.8030357547" lon="-2.1618459653"><ele>197.69</ele><time>2017-05-03T10:22:25Z</time></trkpt><trkpt lat="51.8030705396" lon="-2.1615108568"><ele>198.17</ele><time>2017-05-03T10:22:45Z</time></trkpt><trkpt lat="51.8032002915" lon="-2.1612252854"><ele>200.57</ele><time>2017-05-03T10:23:02Z</time></trkpt><trkpt lat="51.8032628205" lon="-2.1609984711"><ele>202.98</ele><time>2017-05-03T10:23:21Z</time></trkpt><trkpt lat="51.8033572007" lon="-2.1606906038"><ele>205.86</ele><time>2017-05-03T10:23:40Z</time></trkpt><trkpt lat="51.8033620622" lon="-2.1606409829"><ele>205.86</ele><time>2017-05-03T10:23:59Z</time></trkpt><trkpt lat="51.8033503275" lon="-2.1605916135"><ele>209.22</ele><time>2017-05-03T10:24:08Z</time></trkpt><trkpt lat="51.8033494055" lon="-2.1604137495"><ele>210.67</ele><time>2017-05-03T10:24:24Z</time></trkpt><trkpt lat="51.8033149559" lon="-2.1601297706"><ele>213.55</ele><time>2017-05-03T10:24:40Z</time></trkpt><trkpt lat="51.8032957613" lon="-2.1597898845"><ele>216.43</ele><time>2017-05-03T10:24:57Z</time></trkpt><trkpt lat="51.8032869603" lon="-2.1595077496"><ele>217.88</ele><time>2017-05-03T10:25:15Z</time></trkpt><trkpt lat="51.8032801710" lon="-2.1592243575"><ele>219.80</ele><time>2017-05-03T10:25:31Z</time></trkpt><trkpt lat="51.8032671791" lon="-2.1591711324"><ele>220.76</ele><time>2017-05-03T10:25:36Z</time></trkpt><trkpt lat="51.8032522593" lon="-2.1590628382"><ele>221.72</ele><time>2017-05-03T10:25:44Z</time></trkpt><trkpt lat="51.8031666800" lon="-2.1588306595"><ele>223.16</ele><time>2017-05-03T10:26:03Z</time></trkpt><trkpt lat="51.8030797597" lon="-2.1586146578"><ele>224.61</ele><time>2017-05-03T10:26:21Z</time></trkpt><trkpt lat="51.8030230980" lon="-2.1584768593"><ele>225.09</ele><time>2017-05-03T10:26:42Z</time></trkpt><trkpt lat="51.8030046578" lon="-2.1584590897"><ele>226.05</ele><time>2017-05-03T10:27:05Z</time></trkpt><trkpt lat="51.8029965274" lon="-2.1584403981"><ele>226.05</ele><time>2017-05-03T10:27:27Z</time></trkpt><trkpt lat="51.8030003831" lon="-2.1584275737"><ele>226.05</ele><time>2017-05-03T10:27:29Z</time></trkpt><trkpt lat="51.8030576315" lon="-2.1583557408"><ele>226.53</ele><time>2017-05-03T10:27:49Z</time></trkpt><trkpt lat="51.8030059990" lon="-2.1584229637"><ele>227.01</ele><time>2017-05-03T10:28:17Z</time></trkpt><trkpt lat="51.8030015565" lon="-2.1584249754"><ele>226.53</ele><time>2017-05-03T10:28:40Z</time></trkpt><trkpt lat="51.8030012213" lon="-2.1584263165"><ele>226.53</ele><time>2017-05-03T10:29:04Z</time></trkpt><trkpt lat="51.8030092679" lon="-2.1584809665"><ele>226.05</ele><time>2017-05-03T10:29:14Z</time></trkpt><trkpt lat="51.8030278757" lon="-2.1586618479"><ele>225.57</ele><time>2017-05-03T10:29:46Z</time></trkpt><trkpt lat="51.8030326534" lon="-2.1584780328"><ele>226.05</ele><time>2017-05-03T10:30:03Z</time></trkpt><trkpt lat="51.8030137103" lon="-2.1584454272"><ele>225.57</ele><time>2017-05-03T10:30:27Z</time></trkpt><trkpt lat="51.8029807694" lon="-2.1582764480"><ele>227.49</ele><time>2017-05-03T10:30:44Z</time></trkpt><trkpt lat="51.8029359262" lon="-2.1580918785"><ele>226.53</ele><time>2017-05-03T10:30:57Z</time></trkpt><trkpt lat="51.8029591441" lon="-2.1578279324"><ele>227.49</ele><time>2017-05-03T10:31:17Z</time></trkpt><trkpt lat="51.8029594794" lon="-2.1576615516"><ele>227.97</ele><time>2017-05-03T10:31:34Z</time></trkpt><trkpt lat="51.8029484153" lon="-2.1574730426"><ele>228.45</ele><time>2017-05-03T10:31:54Z</time></trkpt><trkpt lat="51.8029503431" lon="-2.1572054084"><ele>228.93</ele><time>2017-05-03T10:32:12Z</time></trkpt><trkpt lat="51.8029436376" lon="-2.1568884049"><ele>230.37</ele><time>2017-05-03T10:32:31Z</time></trkpt><trkpt lat="51.8029659335" lon="-2.1566989738"><ele>231.81</ele><time>2017-05-03T10:32:48Z</time></trkpt><trkpt lat="51.8029273767" lon="-2.1565527935"><ele>233.26</ele><time>2017-05-03T10:33:03Z</time></trkpt><trkpt lat="51.8028902449" lon="-2.1564082894"><ele>234.70</ele><time>2017-05-03T10:33:17Z</time></trkpt><trkpt lat="51.8029069249" lon="-2.1562450938"><ele>236.14</ele><time>2017-05-03T10:33:35Z</time></trkpt><trkpt lat="51.8028868921" lon="-2.1561568324"><ele>236.62</ele><time>2017-05-03T10:33:55Z</time></trkpt><trkpt lat="51.8029026501" lon="-2.1559749451"><ele>238.06</ele><time>2017-05-03T10:34:11Z</time></trkpt><trkpt lat="51.8028721400" lon="-2.1558534913"><ele>239.99</ele><time>2017-05-03T10:34:28Z</time></trkpt><trkpt lat="51.8028736487" lon="-2.1557798982"><ele>240.95</ele><time>2017-05-03T10:34:47Z</time></trkpt><trkpt lat="51.8028880656" lon="-2.1555977594"><ele>243.35</ele><time>2017-05-03T10:35:04Z</time></trkpt><trkpt lat="51.8028691225" lon="-2.1554260980"><ele>244.79</ele><time>2017-05-03T10:35:18Z</time></trkpt><trkpt lat="51.8028652668" lon="-2.1553998627"><ele>245.27</ele><time>2017-05-03T10:35:32Z</time></trkpt><trkpt lat="51.8028616626" lon="-2.1553066559"><ele>244.79</ele><time>2017-05-03T10:35:54Z</time></trkpt><trkpt lat="51.8028613273" lon="-2.1552973520"><ele>244.31</ele><time>2017-05-03T10:36:12Z</time></trkpt><trkpt lat="51.8028306495" lon="-2.1552377567"><ele>244.79</ele><time>2017-05-03T10:36:34Z</time></trkpt><trkpt lat="51.8028007261" lon="-2.1551805083"><ele>244.31</ele><time>2017-05-03T10:36:56Z</time></trkpt><trkpt lat="51.8027722277" lon="-2.1551630739"><ele>244.79</ele><time>2017-05-03T10:37:12Z</time></trkpt><trkpt lat="51.8028769176" lon="-2.1548928414"><ele>246.23</ele><time>2017-05-03T10:37:32Z</time></trkpt><trkpt lat="51.8028825335" lon="-2.1546760853"><ele>246.23</ele><time>2017-05-03T10:37:48Z</time></trkpt><trkpt lat="51.8029348366" lon="-2.1544678789"><ele>247.20</ele><time>2017-05-03T10:38:06Z</time></trkpt><trkpt lat="51.8029520195" lon="-2.1543448325"><ele>248.16</ele><time>2017-05-03T10:38:29Z</time></trkpt><trkpt lat="51.8029583059" lon="-2.1543515380"><ele>246.72</ele><time>2017-05-03T10:38:48Z</time></trkpt><trkpt lat="51.8029538635" lon="-2.1543574054"><ele>247.68</ele><time>2017-05-03T10:38:50Z</time></trkpt><trkpt lat="51.8029541150" lon="-2.1543579921"><ele>236.62</ele><time>2017-05-03T10:38:51Z</time></trkpt><trkpt lat="51.8029539473" lon="-2.1543579921"><ele>250.56</ele><time>2017-05-03T10:38:52Z</time></trkpt><trkpt lat="51.8029538635" lon="-2.1543579921"><ele>246.72</ele><time>2017-05-03T10:38:53Z</time></trkpt><trkpt lat="51.8029431347" lon="-2.1543843113"><ele>248.16</ele><time>2017-05-03T10:39:03Z</time></trkpt><trkpt lat="51.8029569648" lon="-2.1544215269"><ele>248.16</ele><time>2017-05-03T10:39:13Z</time></trkpt><trkpt lat="51.8029643409" lon="-2.1545209363"><ele>243.35</ele><time>2017-05-03T10:39:18Z</time></trkpt><trkpt lat="51.8029638380" lon="-2.1545618400"><ele>240.95</ele><time>2017-05-03T10:39:20Z</time></trkpt><trkpt lat="51.8029669393" lon="-2.1545855608"><ele>253.44</ele><time>2017-05-03T10:39:21Z</time></trkpt><trkpt lat="51.8029686157" lon="-2.1546104550"><ele>241.91</ele><time>2017-05-03T10:39:22Z</time></trkpt><trkpt lat="51.8029694539" lon="-2.1546368580"><ele>250.56</ele><time>2017-05-03T10:39:23Z</time></trkpt><trkpt lat="51.8029693700" lon="-2.1546891611"><ele>245.27</ele><time>2017-05-03T10:39:25Z</time></trkpt><trkpt lat="51.8029694539" lon="-2.1547133848"><ele>256.33</ele><time>2017-05-03T10:39:26Z</time></trkpt><trkpt lat="51.8029687833" lon="-2.1547363512"><ele>241.43</ele><time>2017-05-03T10:39:27Z</time></trkpt><trkpt lat="51.8029679451" lon="-2.1547576413"><ele>250.56</ele><time>2017-05-03T10:39:28Z</time></trkpt><trkpt lat="51.8029659335" lon="-2.1547773387"><ele>246.23</ele><time>2017-05-03T10:39:29Z</time></trkpt><trkpt lat="51.8029624969" lon="-2.1547962818"><ele>252.96</ele><time>2017-05-03T10:39:30Z</time></trkpt><trkpt lat="51.8029535282" lon="-2.1548283007"><ele>240.95</ele><time>2017-05-03T10:39:32Z</time></trkpt><trkpt lat="51.8029505946" lon="-2.1548416279"><ele>242.39</ele><time>2017-05-03T10:39:33Z</time></trkpt><trkpt lat="51.8029480800" lon="-2.1548526920"><ele>250.08</ele><time>2017-05-03T10:39:34Z</time></trkpt><trkpt lat="51.8029456493" lon="-2.1548615769"><ele>249.60</ele><time>2017-05-03T10:39:35Z</time></trkpt><trkpt lat="51.8029438891" lon="-2.1548693720"><ele>253.93</ele><time>2017-05-03T10:39:36Z</time></trkpt><trkpt lat="51.8029415421" lon="-2.1548746526"><ele>248.64</ele><time>2017-05-03T10:39:37Z</time></trkpt><trkpt lat="51.8029267062" lon="-2.1548626665"><ele>236.62</ele><time>2017-05-03T10:39:42Z</time></trkpt><trkpt lat="51.8029252812" lon="-2.1548557095"><ele>250.56</ele><time>2017-05-03T10:39:43Z</time></trkpt><trkpt lat="51.8029264547" lon="-2.1548498422"><ele>247.20</ele><time>2017-05-03T10:39:44Z</time></trkpt><trkpt lat="51.8029287178" lon="-2.1548385266"><ele>248.64</ele><time>2017-05-03T10:39:47Z</time></trkpt><trkpt lat="51.8029415421" lon="-2.1548308991"><ele>244.79</ele><time>2017-05-03T10:39:50Z</time></trkpt><trkpt lat="51.8029447272" lon="-2.1548251156"><ele>248.16</ele><time>2017-05-03T10:39:51Z</time></trkpt><trkpt lat="51.8029619940" lon="-2.1547750756"><ele>248.16</ele><time>2017-05-03T10:39:56Z</time></trkpt><trkpt lat="51.8029837869" lon="-2.1547485050"><ele>248.64</ele><time>2017-05-03T10:39:58Z</time></trkpt><trkpt lat="51.8029328249" lon="-2.1545784362"><ele>248.16</ele><time>2017-05-03T10:40:16Z</time></trkpt><trkpt lat="51.8029099423" lon="-2.1544697229"><ele>246.72</ele><time>2017-05-03T10:40:48Z</time></trkpt><trkpt lat="51.8028980400" lon="-2.1543718223"><ele>248.16</ele><time>2017-05-03T10:41:17Z</time></trkpt><trkpt lat="51.8029110320" lon="-2.1541790385"><ele>249.60</ele><time>2017-05-03T10:41:33Z</time></trkpt><trkpt lat="51.8029962759" lon="-2.1539681498"><ele>250.56</ele><time>2017-05-03T10:41:47Z</time></trkpt><trkpt lat="51.8030761555" lon="-2.1537194587"><ele>252.48</ele><time>2017-05-03T10:42:01Z</time></trkpt><trkpt lat="51.8031353317" lon="-2.1536152717"><ele>253.93</ele><time>2017-05-03T10:42:09Z</time></trkpt><trkpt lat="51.8032126967" lon="-2.1535145212"><ele>254.89</ele><time>2017-05-03T10:42:20Z</time></trkpt><trkpt lat="51.8032199051" lon="-2.1535000205"><ele>255.37</ele><time>2017-05-03T10:42:21Z</time></trkpt><trkpt lat="51.8032852840" lon="-2.1534481365"><ele>255.37</ele><time>2017-05-03T10:42:26Z</time></trkpt><trkpt lat="51.8034180533" lon="-2.1533176303"><ele>254.89</ele><time>2017-05-03T10:42:41Z</time></trkpt><trkpt lat="51.8034304585" lon="-2.1532880422"><ele>254.89</ele><time>2017-05-03T10:42:43Z</time></trkpt><trkpt lat="51.8035198096" lon="-2.1530520078"><ele>253.44</ele><time>2017-05-03T10:42:57Z</time></trkpt><trkpt lat="51.8036250863" lon="-2.1528899018"><ele>252.96</ele><time>2017-05-03T10:43:08Z</time></trkpt><trkpt lat="51.8036514055" lon="-2.1528669354"><ele>252.48</ele><time>2017-05-03T10:43:10Z</time></trkpt><trkpt lat="51.8037662376" lon="-2.1527003031"><ele>251.52</ele><time>2017-05-03T10:43:22Z</time></trkpt><trkpt lat="51.8038406689" lon="-2.1525624208"><ele>251.52</ele><time>2017-05-03T10:43:31Z</time></trkpt><trkpt lat="51.8039176986" lon="-2.1524159890"><ele>250.56</ele><time>2017-05-03T10:43:40Z</time></trkpt><trkpt lat="51.8039523996" lon="-2.1523566451"><ele>250.56</ele><time>2017-05-03T10:43:44Z</time></trkpt><trkpt lat="51.8040691596" lon="-2.1521994006"><ele>251.04</ele><time>2017-05-03T10:43:57Z</time></trkpt><trkpt lat="51.8041048665" lon="-2.1521415655"><ele>250.08</ele><time>2017-05-03T10:44:02Z</time></trkpt><trkpt lat="51.8042199500" lon="-2.1519472729"><ele>247.68</ele><time>2017-05-03T10:44:16Z</time></trkpt><trkpt lat="51.8043590896" lon="-2.1517243981"><ele>247.68</ele><time>2017-05-03T10:44:31Z</time></trkpt><trkpt lat="51.8043932039" lon="-2.1516695805"><ele>246.23</ele><time>2017-05-03T10:44:34Z</time></trkpt><trkpt lat="51.8044192716" lon="-2.1516280062"><ele>246.23</ele><time>2017-05-03T10:44:37Z</time></trkpt><trkpt lat="51.8044592533" lon="-2.1515477914"><ele>245.75</ele><time>2017-05-03T10:44:41Z</time></trkpt><trkpt lat="51.8046338484" lon="-2.1512925625"><ele>244.79</ele><time>2017-05-03T10:44:57Z</time></trkpt><trkpt lat="51.8047735747" lon="-2.1510540135"><ele>244.31</ele><time>2017-05-03T10:45:11Z</time></trkpt><trkpt lat="51.8047897518" lon="-2.1510267723"><ele>242.87</ele><time>2017-05-03T10:45:13Z</time></trkpt><trkpt lat="51.8049112894" lon="-2.1507414524"><ele>242.87</ele><time>2017-05-03T10:45:28Z</time></trkpt><trkpt lat="51.8050309829" lon="-2.1505064238"><ele>241.91</ele><time>2017-05-03T10:45:43Z</time></trkpt><trkpt lat="51.8050925899" lon="-2.1504071821"><ele>242.87</ele><time>2017-05-03T10:45:58Z</time></trkpt><trkpt lat="51.8051678594" lon="-2.1502880752"><ele>241.91</ele><time>2017-05-03T10:46:09Z</time></trkpt><trkpt lat="51.8051911611" lon="-2.1502439026"><ele>240.95</ele><time>2017-05-03T10:46:12Z</time></trkpt><trkpt lat="51.8052147143" lon="-2.1501885820"><ele>242.39</ele><time>2017-05-03T10:46:17Z</time></trkpt><trkpt lat="51.8052356690" lon="-2.1501591615"><ele>240.95</ele><time>2017-05-03T10:46:20Z</time></trkpt><trkpt lat="51.8052541930" lon="-2.1501201019"><ele>241.43</ele><time>2017-05-03T10:46:23Z</time></trkpt><trkpt lat="51.8053507525" lon="-2.1499050222"><ele>240.47</ele><time>2017-05-03T10:46:39Z</time></trkpt><trkpt lat="51.8054086715" lon="-2.1497914474"><ele>239.51</ele><time>2017-05-03T10:46:48Z</time></trkpt><trkpt lat="51.8054418638" lon="-2.1496820636"><ele>239.99</ele><time>2017-05-03T10:46:57Z</time></trkpt><trkpt lat="51.8054547720" lon="-2.1496663895"><ele>239.51</ele><time>2017-05-03T10:46:59Z</time></trkpt><trkpt lat="51.8055469729" lon="-2.1494928841"><ele>239.51</ele><time>2017-05-03T10:47:16Z</time></trkpt><trkpt lat="51.8055256829" lon="-2.1494597755"><ele>240.47</ele><time>2017-05-03T10:47:29Z</time></trkpt><trkpt lat="51.8055474758" lon="-2.1494264994"><ele>239.99</ele><time>2017-05-03T10:47:42Z</time></trkpt><trkpt lat="51.8056263495" lon="-2.1493725199"><ele>239.99</ele><time>2017-05-03T10:47:57Z</time></trkpt><trkpt lat="51.8057035469" lon="-2.1493412554"><ele>239.51</ele><time>2017-05-03T10:48:05Z</time></trkpt><trkpt lat="51.8058664910" lon="-2.1492124256"><ele>239.99</ele><time>2017-05-03T10:48:21Z</time></trkpt><trkpt lat="51.8059975840" lon="-2.1490946598"><ele>240.95</ele><time>2017-05-03T10:48:37Z</time></trkpt><trkpt lat="51.8060335424" lon="-2.1490447037"><ele>240.47</ele><time>2017-05-03T10:48:57Z</time></trkpt><trkpt lat="51.8060436845" lon="-2.1490366571"><ele>239.02</ele><time>2017-05-03T10:49:05Z</time></trkpt><trkpt lat="51.8060751166" lon="-2.1490093321"><ele>239.51</ele><time>2017-05-03T10:49:14Z</time></trkpt><trkpt lat="51.8061870150" lon="-2.1489528380"><ele>236.62</ele><time>2017-05-03T10:49:24Z</time></trkpt><trkpt lat="51.8062256556" lon="-2.1489546821"><ele>239.02</ele><time>2017-05-03T10:49:27Z</time></trkpt><trkpt lat="51.8063083850" lon="-2.1489497367"><ele>236.62</ele><time>2017-05-03T10:49:35Z</time></trkpt><trkpt lat="51.8063326087" lon="-2.1489448752"><ele>237.10</ele><time>2017-05-03T10:49:37Z</time></trkpt><trkpt lat="51.8064822257" lon="-2.1489123534"><ele>235.18</ele><time>2017-05-03T10:49:52Z</time></trkpt><trkpt lat="51.8066371232" lon="-2.1488782391"><ele>234.22</ele><time>2017-05-03T10:50:06Z</time></trkpt><trkpt lat="51.8066546414" lon="-2.1488794126"><ele>233.26</ele><time>2017-05-03T10:50:08Z</time></trkpt><trkpt lat="51.8067764305" lon="-2.1488608047"><ele>231.81</ele><time>2017-05-03T10:50:20Z</time></trkpt><trkpt lat="51.8069072720" lon="-2.1488387603"><ele>231.81</ele><time>2017-05-03T10:50:34Z</time></trkpt><trkpt lat="51.8070579786" lon="-2.1488242596"><ele>228.93</ele><time>2017-05-03T10:50:49Z</time></trkpt><trkpt lat="51.8070846330" lon="-2.1488266904"><ele>229.89</ele><time>2017-05-03T10:50:59Z</time></trkpt><trkpt lat="51.8070888240" lon="-2.1488264389"><ele>229.41</ele><time>2017-05-03T10:51:20Z</time></trkpt><trkpt lat="51.8071095273" lon="-2.1488836035"><ele>228.45</ele><time>2017-05-03T10:51:36Z</time></trkpt><trkpt lat="51.8071775045" lon="-2.1489535924"><ele>227.97</ele><time>2017-05-03T10:51:52Z</time></trkpt><trkpt lat="51.8071930110" lon="-2.1489680093"><ele>227.49</ele><time>2017-05-03T10:51:54Z</time></trkpt><trkpt lat="51.8073007185" lon="-2.1490514930"><ele>224.61</ele><time>2017-05-03T10:52:05Z</time></trkpt><trkpt lat="51.8074286263" lon="-2.1491188835"><ele>222.20</ele><time>2017-05-03T10:52:19Z</time></trkpt><trkpt lat="51.8075437937" lon="-2.1491674986"><ele>220.28</ele><time>2017-05-03T10:52:33Z</time></trkpt><trkpt lat="51.8076608889" lon="-2.1491825860"><ele>220.28</ele><time>2017-05-03T10:52:49Z</time></trkpt><trkpt lat="51.8077134434" lon="-2.1491749585"><ele>217.88</ele><time>2017-05-03T10:53:04Z</time></trkpt><trkpt lat="51.8077137787" lon="-2.1491758805"><ele>218.36</ele><time>2017-05-03T10:53:05Z</time></trkpt><trkpt lat="51.8078115117" lon="-2.1491986793"><ele>216.91</ele><time>2017-05-03T10:53:18Z</time></trkpt><trkpt lat="51.8078355677" lon="-2.1492061391"><ele>216.43</ele><time>2017-05-03T10:53:30Z</time></trkpt><trkpt lat="51.8078586180" lon="-2.1491966676"><ele>215.95</ele><time>2017-05-03T10:53:45Z</time></trkpt><trkpt lat="51.8079437781" lon="-2.1492217295"><ele>214.99</ele><time>2017-05-03T10:53:58Z</time></trkpt><trkpt lat="51.8080405891" lon="-2.1492758766"><ele>214.51</ele><time>2017-05-03T10:54:11Z</time></trkpt><trkpt lat="51.8081271742" lon="-2.1493201330"><ele>212.59</ele><time>2017-05-03T10:54:25Z</time></trkpt><trkpt lat="51.8082039524" lon="-2.1493536606"><ele>210.67</ele><time>2017-05-03T10:54:36Z</time></trkpt><trkpt lat="51.8082201295" lon="-2.1493044589"><ele>210.19</ele><time>2017-05-03T10:54:51Z</time></trkpt><trkpt lat="51.8082494661" lon="-2.1492990106"><ele>210.19</ele><time>2017-05-03T10:55:07Z</time></trkpt><trkpt lat="51.8082552496" lon="-2.1493035369"><ele>210.67</ele><time>2017-05-03T10:55:15Z</time></trkpt><trkpt lat="51.8083472829" lon="-2.1493168641"><ele>208.26</ele><time>2017-05-03T10:55:30Z</time></trkpt><trkpt lat="51.8084150087" lon="-2.1493037883"><ele>207.78</ele><time>2017-05-03T10:55:47Z</time></trkpt><trkpt lat="51.8084874284" lon="-2.1492844261"><ele>207.30</ele><time>2017-05-03T10:56:00Z</time></trkpt><trkpt lat="51.8085669726" lon="-2.1492479648"><ele>205.86</ele><time>2017-05-03T10:56:15Z</time></trkpt><trkpt lat="51.8086942099" lon="-2.1492054686"><ele>203.94</ele><time>2017-05-03T10:56:32Z</time></trkpt><trkpt lat="51.8087904342" lon="-2.1491566021"><ele>201.53</ele><time>2017-05-03T10:56:47Z</time></trkpt><trkpt lat="51.8088476826" lon="-2.1491289418"><ele>200.57</ele><time>2017-05-03T10:57:01Z</time></trkpt><trkpt lat="51.8088653684" lon="-2.1491193864"><ele>200.57</ele><time>2017-05-03T10:57:03Z</time></trkpt><trkpt lat="51.8089164142" lon="-2.1491006948"><ele>200.09</ele><time>2017-05-03T10:57:08Z</time></trkpt><trkpt lat="51.8089900073" lon="-2.1490691788"><ele>198.17</ele><time>2017-05-03T10:57:21Z</time></trkpt><trkpt lat="51.8090841360" lon="-2.1490321308"><ele>197.21</ele><time>2017-05-03T10:57:37Z</time></trkpt><trkpt lat="51.8091654405" lon="-2.1489737090"><ele>195.77</ele><time>2017-05-03T10:57:50Z</time></trkpt><trkpt lat="51.8092692923" lon="-2.1489421092"><ele>193.36</ele><time>2017-05-03T10:58:06Z</time></trkpt><trkpt lat="51.8092964496" lon="-2.1489380021"><ele>193.36</ele><time>2017-05-03T10:58:11Z</time></trkpt><trkpt lat="51.8093390297" lon="-2.1489032172"><ele>191.44</ele><time>2017-05-03T10:58:28Z</time></trkpt><trkpt lat="51.8093545362" lon="-2.1489029657"><ele>191.92</ele><time>2017-05-03T10:58:41Z</time></trkpt><trkpt lat="51.8094457313" lon="-2.1488745511"><ele>190.48</ele><time>2017-05-03T10:58:54Z</time></trkpt><trkpt lat="51.8094934244" lon="-2.1488639060"><ele>190.48</ele><time>2017-05-03T10:59:07Z</time></trkpt><trkpt lat="51.8095606472" lon="-2.1488371678"><ele>189.04</ele><time>2017-05-03T10:59:18Z</time></trkpt><trkpt lat="51.8096436281" lon="-2.1488321386"><ele>188.08</ele><time>2017-05-03T10:59:32Z</time></trkpt><trkpt lat="51.8097157124" lon="-2.1488209907"><ele>187.11</ele><time>2017-05-03T10:59:45Z</time></trkpt><trkpt lat="51.8097684346" lon="-2.1488006227"><ele>186.15</ele><time>2017-05-03T11:00:00Z</time></trkpt><trkpt lat="51.8098462187" lon="-2.1487090085"><ele>184.23</ele><time>2017-05-03T11:00:13Z</time></trkpt><trkpt lat="51.8098911457" lon="-2.1485572960"><ele>184.71</ele><time>2017-05-03T11:00:28Z</time></trkpt><trkpt lat="51.8099069875" lon="-2.1484236885"><ele>185.67</ele><time>2017-05-03T11:00:41Z</time></trkpt><trkpt lat="51.8099865317" lon="-2.1483620815"><ele>185.67</ele><time>2017-05-03T11:00:55Z</time></trkpt><trkpt lat="51.8100234959" lon="-2.1484402008"><ele>186.63</ele><time>2017-05-03T11:01:09Z</time></trkpt><trkpt lat="51.8100595381" lon="-2.1485186554"><ele>187.59</ele><time>2017-05-03T11:01:23Z</time></trkpt><trkpt lat="51.8101018667" lon="-2.1485441364"><ele>189.52</ele><time>2017-05-03T11:01:40Z</time></trkpt><trkpt lat="51.8101678323" lon="-2.1485644206"><ele>190.48</ele><time>2017-05-03T11:01:51Z</time></trkpt><trkpt lat="51.8102503940" lon="-2.1486627404"><ele>191.92</ele><time>2017-05-03T11:02:09Z</time></trkpt><trkpt lat="51.8102486338" lon="-2.1488604695"><ele>193.36</ele><time>2017-05-03T11:02:26Z</time></trkpt><trkpt lat="51.8102570996" lon="-2.1489128564"><ele>194.32</ele><time>2017-05-03T11:02:40Z</time></trkpt><trkpt lat="51.8103189580" lon="-2.1490284428"><ele>195.77</ele><time>2017-05-03T11:02:56Z</time></trkpt><trkpt lat="51.8103832472" lon="-2.1491972543"><ele>197.21</ele><time>2017-05-03T11:03:12Z</time></trkpt><trkpt lat="51.8104358856" lon="-2.1493550856"><ele>198.17</ele><time>2017-05-03T11:03:25Z</time></trkpt><trkpt lat="51.8104052078" lon="-2.1493664850"><ele>198.17</ele><time>2017-05-03T11:03:52Z</time></trkpt><trkpt lat="51.8103954010" lon="-2.1493686642"><ele>198.65</ele><time>2017-05-03T11:04:16Z</time></trkpt><trkpt lat="51.8103938084" lon="-2.1493809856"><ele>199.61</ele><time>2017-05-03T11:04:19Z</time></trkpt><trkpt lat="51.8104456924" lon="-2.1495157667"><ele>200.57</ele><time>2017-05-03T11:04:33Z</time></trkpt><trkpt lat="51.8105104007" lon="-2.1496919543"><ele>202.01</ele><time>2017-05-03T11:04:46Z</time></trkpt><trkpt lat="51.8105694093" lon="-2.1499245521"><ele>202.49</ele><time>2017-05-03T11:04:59Z</time></trkpt><trkpt lat="51.8106129114" lon="-2.1501850616"><ele>202.98</ele><time>2017-05-03T11:05:12Z</time></trkpt><trkpt lat="51.8106421642" lon="-2.1503595728"><ele>202.98</ele><time>2017-05-03T11:05:24Z</time></trkpt><trkpt lat="51.8106717523" lon="-2.1506223455"><ele>202.98</ele><time>2017-05-03T11:05:38Z</time></trkpt><trkpt lat="51.8107093871" lon="-2.1508319769"><ele>203.94</ele><time>2017-05-03T11:05:53Z</time></trkpt><trkpt lat="51.8107247259" lon="-2.1509860363"><ele>204.90</ele><time>2017-05-03T11:06:08Z</time></trkpt><trkpt lat="51.8107904401" lon="-2.1511849388"><ele>206.34</ele><time>2017-05-03T11:06:21Z</time></trkpt><trkpt lat="51.8107856624" lon="-2.1513265092"><ele>206.34</ele><time>2017-05-03T11:06:36Z</time></trkpt><trkpt lat="51.8108021747" lon="-2.1514482144"><ele>207.30</ele><time>2017-05-03T11:06:50Z</time></trkpt><trkpt lat="51.8108124007" lon="-2.1516509727"><ele>208.26</ele><time>2017-05-03T11:07:04Z</time></trkpt><trkpt lat="51.8108381331" lon="-2.1517518070"><ele>208.26</ele><time>2017-05-03T11:07:15Z</time></trkpt><trkpt lat="51.8108408153" lon="-2.1517886035"><ele>208.26</ele><time>2017-05-03T11:07:25Z</time></trkpt><trkpt lat="51.8108447548" lon="-2.1518199518"><ele>208.26</ele><time>2017-05-03T11:07:27Z</time></trkpt><trkpt lat="51.8109005783" lon="-2.1520809643"><ele>209.70</ele><time>2017-05-03T11:07:40Z</time></trkpt><trkpt lat="51.8109339382" lon="-2.1523325052"><ele>211.15</ele><time>2017-05-03T11:07:52Z</time></trkpt><trkpt lat="51.8109323457" lon="-2.1525608283"><ele>213.07</ele><time>2017-05-03T11:08:05Z</time></trkpt><trkpt lat="51.8109861575" lon="-2.1527365968"><ele>213.55</ele><time>2017-05-03T11:08:18Z</time></trkpt><trkpt lat="51.8110113032" lon="-2.1528748143"><ele>214.99</ele><time>2017-05-03T11:08:30Z</time></trkpt><trkpt lat="51.8110626005" lon="-2.1529992018"><ele>214.51</ele><time>2017-05-03T11:08:41Z</time></trkpt><trkpt lat="51.8110631872" lon="-2.1530095115"><ele>214.51</ele><time>2017-05-03T11:08:52Z</time></trkpt><trkpt lat="51.8110837229" lon="-2.1531040594"><ele>214.51</ele><time>2017-05-03T11:09:07Z</time></trkpt><trkpt lat="51.8111206032" lon="-2.1532568615"><ele>212.59</ele><time>2017-05-03T11:09:22Z</time></trkpt><trkpt lat="51.8111584894" lon="-2.1534115076"><ele>211.15</ele><time>2017-05-03T11:09:37Z</time></trkpt><trkpt lat="51.8111816235" lon="-2.1535030380"><ele>210.19</ele><time>2017-05-03T11:09:49Z</time></trkpt><trkpt lat="51.8111970462" lon="-2.1535881981"><ele>209.22</ele><time>2017-05-03T11:09:56Z</time></trkpt><trkpt lat="51.8112263829" lon="-2.1537771262"><ele>207.30</ele><time>2017-05-03T11:10:10Z</time></trkpt><trkpt lat="51.8112315796" lon="-2.1539518051"><ele>205.38</ele><time>2017-05-03T11:10:26Z</time></trkpt><trkpt lat="51.8112343457" lon="-2.1540203691"><ele>205.38</ele><time>2017-05-03T11:10:32Z</time></trkpt><trkpt lat="51.8112160731" lon="-2.1542011667"><ele>204.42</ele><time>2017-05-03T11:10:46Z</time></trkpt><trkpt lat="51.8112235330" lon="-2.1542544756"><ele>203.46</ele><time>2017-05-03T11:10:51Z</time></trkpt><trkpt lat="51.8112225272" lon="-2.1543940343"><ele>202.01</ele><time>2017-05-03T11:11:04Z</time></trkpt><trkpt lat="51.8112306576" lon="-2.1545305755"><ele>201.05</ele><time>2017-05-03T11:11:18Z</time></trkpt><trkpt lat="51.8112349324" lon="-2.1547132172"><ele>199.13</ele><time>2017-05-03T11:11:32Z</time></trkpt><trkpt lat="51.8111977167" lon="-2.1548193321"><ele>199.13</ele><time>2017-05-03T11:11:47Z</time></trkpt><trkpt lat="51.8112060148" lon="-2.1548033226"><ele>198.17</ele><time>2017-05-03T11:12:09Z</time></trkpt><trkpt lat="51.8112071883" lon="-2.1547986288"><ele>197.69</ele><time>2017-05-03T11:12:43Z</time></trkpt><trkpt lat="51.8112074398" lon="-2.1548021492"><ele>199.61</ele><time>2017-05-03T11:13:00Z</time></trkpt><trkpt lat="51.8112452421" lon="-2.1548828669"><ele>197.69</ele><time>2017-05-03T11:13:13Z</time></trkpt><trkpt lat="51.8112771772" lon="-2.1549221780"><ele>197.21</ele><time>2017-05-03T11:13:17Z</time></trkpt><trkpt lat="51.8113499321" lon="-2.1551156323"><ele>194.32</ele><time>2017-05-03T11:13:28Z</time></trkpt><trkpt lat="51.8113806099" lon="-2.1551940031"><ele>193.36</ele><time>2017-05-03T11:13:32Z</time></trkpt><trkpt lat="51.8114250340" lon="-2.1552555263"><ele>192.40</ele><time>2017-05-03T11:13:38Z</time></trkpt><trkpt lat="51.8114519399" lon="-2.1553312987"><ele>190.96</ele><time>2017-05-03T11:13:43Z</time></trkpt><trkpt lat="51.8114706315" lon="-2.1554288641"><ele>190.48</ele><time>2017-05-03T11:13:48Z</time></trkpt><trkpt lat="51.8114846293" lon="-2.1555390023"><ele>189.04</ele><time>2017-05-03T11:13:53Z</time></trkpt><trkpt lat="51.8115009740" lon="-2.1556745376"><ele>188.08</ele><time>2017-05-03T11:13:59Z</time></trkpt><trkpt lat="51.8115370162" lon="-2.1558586881"><ele>185.67</ele><time>2017-05-03T11:14:13Z</time></trkpt><trkpt lat="51.8115614913" lon="-2.1558394097"><ele>186.63</ele><time>2017-05-03T11:14:15Z</time></trkpt><trkpt lat="51.8116731383" lon="-2.1557192970"><ele>186.15</ele><time>2017-05-03T11:14:27Z</time></trkpt><trkpt lat="51.8117346615" lon="-2.1556230728"><ele>185.67</ele><time>2017-05-03T11:14:35Z</time></trkpt><trkpt lat="51.8118163012" lon="-2.1555343922"><ele>185.19</ele><time>2017-05-03T11:14:43Z</time></trkpt><trkpt lat="51.8119599670" lon="-2.1554081608"><ele>185.19</ele><time>2017-05-03T11:14:58Z</time></trkpt><trkpt lat="51.8120625615" lon="-2.1553126909"><ele>184.23</ele><time>2017-05-03T11:15:12Z</time></trkpt><trkpt lat="51.8121900503" lon="-2.1552312188"><ele>184.71</ele><time>2017-05-03T11:15:25Z</time></trkpt><trkpt lat="51.8123284355" lon="-2.1551462263"><ele>183.27</ele><time>2017-05-03T11:15:42Z</time></trkpt><trkpt lat="51.8124159425" lon="-2.1551113576"><ele>182.79</ele><time>2017-05-03T11:15:56Z</time></trkpt><trkpt lat="51.8125135917" lon="-2.1550361719"><ele>181.83</ele><time>2017-05-03T11:16:17Z</time></trkpt><trkpt lat="51.8126161862" lon="-2.1549214236"><ele>182.79</ele><time>2017-05-03T11:16:31Z</time></trkpt><trkpt lat="51.8127540685" lon="-2.1548055857"><ele>182.31</ele><time>2017-05-03T11:16:43Z</time></trkpt><trkpt lat="51.8129205331" lon="-2.1546742413"><ele>181.35</ele><time>2017-05-03T11:16:57Z</time></trkpt><trkpt lat="51.8130566552" lon="-2.1546290629"><ele>181.35</ele><time>2017-05-03T11:17:08Z</time></trkpt><trkpt lat="51.8131259736" lon="-2.1545451600"><ele>181.35</ele><time>2017-05-03T11:17:16Z</time></trkpt><trkpt lat="51.8132083677" lon="-2.1544340160"><ele>180.87</ele><time>2017-05-03T11:17:26Z</time></trkpt><trkpt lat="51.8133130576" lon="-2.1543293260"><ele>180.87</ele><time>2017-05-03T11:17:39Z</time></trkpt><trkpt lat="51.8133703899" lon="-2.1542828903"><ele>181.35</ele><time>2017-05-03T11:17:50Z</time></trkpt><trkpt lat="51.8134082761" lon="-2.1542266477"><ele>180.87</ele><time>2017-05-03T11:17:56Z</time></trkpt><trkpt lat="51.8134948611" lon="-2.1541412361"><ele>179.90</ele><time>2017-05-03T11:18:10Z</time></trkpt><trkpt lat="51.8135438953" lon="-2.1541064512"><ele>180.38</ele><time>2017-05-03T11:18:20Z</time></trkpt><trkpt lat="51.8135762494" lon="-2.1540795453"><ele>178.94</ele><time>2017-05-03T11:18:23Z</time></trkpt><trkpt lat="51.8135979585" lon="-2.1540594287"><ele>181.83</ele><time>2017-05-03T11:18:25Z</time></trkpt><trkpt lat="51.8136845436" lon="-2.1539709158"><ele>179.90</ele><time>2017-05-03T11:18:35Z</time></trkpt><trkpt lat="51.8137365952" lon="-2.1539281681"><ele>179.42</ele><time>2017-05-03T11:18:39Z</time></trkpt><trkpt lat="51.8138821889" lon="-2.1538078040"><ele>179.90</ele><time>2017-05-03T11:18:52Z</time></trkpt><trkpt lat="51.8139592186" lon="-2.1537350491"><ele>178.94</ele><time>2017-05-03T11:18:59Z</time></trkpt><trkpt lat="51.8140629865" lon="-2.1535998490"><ele>178.94</ele><time>2017-05-03T11:19:11Z</time></trkpt><trkpt lat="51.8140783254" lon="-2.1535816602"><ele>178.94</ele><time>2017-05-03T11:19:13Z</time></trkpt><trkpt lat="51.8141116854" lon="-2.1535492223"><ele>178.46</ele><time>2017-05-03T11:19:17Z</time></trkpt><trkpt lat="51.8142634816" lon="-2.1534554288"><ele>177.98</ele><time>2017-05-03T11:19:30Z</time></trkpt><trkpt lat="51.8143378291" lon="-2.1533939056"><ele>177.98</ele><time>2017-05-03T11:19:46Z</time></trkpt><trkpt lat="51.8143280223" lon="-2.1534224879"><ele>177.50</ele><time>2017-05-03T11:20:00Z</time></trkpt><trkpt lat="51.8143392541" lon="-2.1534370724"><ele>177.98</ele><time>2017-05-03T11:20:16Z</time></trkpt><trkpt lat="51.8143373262" lon="-2.1533908881"><ele>178.46</ele><time>2017-05-03T11:20:32Z</time></trkpt><trkpt lat="51.8143571913" lon="-2.1533514932"><ele>177.98</ele><time>2017-05-03T11:20:44Z</time></trkpt><trkpt lat="51.8144087400" lon="-2.1532695182"><ele>176.54</ele><time>2017-05-03T11:20:50Z</time></trkpt><trkpt lat="51.8144949060" lon="-2.1531633195"><ele>176.06</ele><time>2017-05-03T11:21:00Z</time></trkpt><trkpt lat="51.8146659806" lon="-2.1530696098"><ele>174.62</ele><time>2017-05-03T11:21:15Z</time></trkpt><trkpt lat="51.8147065490" lon="-2.1530324779"><ele>174.62</ele><time>2017-05-03T11:21:19Z</time></trkpt><trkpt lat="51.8148490414" lon="-2.1528590564"><ele>173.17</ele><time>2017-05-03T11:21:34Z</time></trkpt><trkpt lat="51.8148575909" lon="-2.1528013889"><ele>172.69</ele><time>2017-05-03T11:21:49Z</time></trkpt><trkpt lat="51.8148712534" lon="-2.1528068371"><ele>173.17</ele><time>2017-05-03T11:22:05Z</time></trkpt><trkpt lat="51.8148720916" lon="-2.1528160572"><ele>172.69</ele><time>2017-05-03T11:22:21Z</time></trkpt><trkpt lat="51.8148713373" lon="-2.1528237686"><ele>172.69</ele><time>2017-05-03T11:22:29Z</time></trkpt></trkseg></trk></gpx>